createdAt,value
2024-01-10T00:00:41.552Z,-5.9
2024-01-10T00:01:57.634Z,-5.9
2024-01-10T00:03:13.552Z,-5.8
2024-01-10T00:04:29.520Z,-5.8
2024-01-10T00:05:45.757Z,-5.8
2024-01-10T00:07:01.589Z,-5.8
2024-01-10T00:08:17.611Z,-5.9
2024-01-10T00:09:34.205Z,-6.1
2024-01-10T00:10:50.604Z,-6.2
2024-01-10T00:12:06.628Z,-6.3
2024-01-10T00:13:22.513Z,-6.5
2024-01-10T00:14:38.631Z,-6.9
2024-01-10T00:15:54.528Z,-6.9
2024-01-10T00:17:10.597Z,-7.1
2024-01-10T00:18:26.715Z,-7.3
2024-01-10T00:19:42.616Z,-7.3
2024-01-10T00:20:58.580Z,-7.2
2024-01-10T00:22:14.547Z,-7.1
2024-01-10T00:23:30.563Z,-6.9
2024-01-10T00:24:46.549Z,-6.8
2024-01-10T00:26:02.698Z,-6.7
2024-01-10T00:27:18.610Z,-6.6
2024-01-10T00:28:34.562Z,-6.5
2024-01-10T00:29:50.598Z,-6.4
2024-01-10T00:31:06.658Z,-6.3
2024-01-10T00:32:22.640Z,-6.3
2024-01-10T00:33:38.609Z,-6.3
2024-01-10T00:34:54.607Z,-6.3
2024-01-10T00:36:10.596Z,-6.2
2024-01-10T00:37:26.576Z,-6.2
2024-01-10T00:38:42.607Z,-6.2
2024-01-10T00:39:58.626Z,-6.1
2024-01-10T00:41:14.600Z,-6.2
2024-01-10T00:42:30.581Z,-6.4
2024-01-10T00:43:46.576Z,-6.5
2024-01-10T00:45:02.668Z,-6.7
2024-01-10T00:46:18.581Z,-6.9
2024-01-10T00:47:34.576Z,-6.9
2024-01-10T00:48:50.597Z,-6.8
2024-01-10T00:50:06.660Z,-6.7
2024-01-10T00:51:22.580Z,-6.5
2024-01-10T00:52:38.613Z,-6.4
2024-01-10T00:53:54.649Z,-6.4
2024-01-10T00:55:10.968Z,-6.3
2024-01-10T00:56:27.669Z,-6.3
2024-01-10T00:57:43.598Z,-6.2
2024-01-10T00:58:59.716Z,-6.1
2024-01-10T01:00:15.628Z,-6.1
2024-01-10T01:01:31.611Z,-6.2
2024-01-10T01:02:47.640Z,-6.2
2024-01-10T01:04:04.733Z,-6.2
2024-01-10T01:05:20.704Z,-6.1
2024-01-10T01:06:36.624Z,-6.1
2024-01-10T01:07:52.625Z,-6.3
2024-01-10T01:09:08.665Z,-6.6
2024-01-10T01:10:24.587Z,-6.8
2024-01-10T01:11:40.620Z,-7
2024-01-10T01:12:56.628Z,-7.4
2024-01-10T01:14:13.112Z,-7.6
2024-01-10T01:15:29.641Z,-7.8
2024-01-10T01:16:45.647Z,-8
2024-01-10T01:18:01.744Z,-7.9
2024-01-10T01:19:17.724Z,-7.9
2024-01-10T01:20:33.640Z,-7.9
2024-01-10T01:21:49.618Z,-8
2024-01-10T01:23:05.678Z,-8
2024-01-10T01:24:21.635Z,-7.8
2024-01-10T01:25:38.665Z,-7.6
2024-01-10T01:26:54.922Z,-7.5
2024-01-10T01:28:11.637Z,-7.3
2024-01-10T01:29:27.658Z,-7.1
2024-01-10T01:30:43.919Z,-7
2024-01-10T01:32:00.660Z,-6.9
2024-01-10T01:33:16.786Z,-7
2024-01-10T01:34:32.703Z,-7
2024-01-10T01:35:48.628Z,-7
2024-01-10T01:37:04.713Z,-7
2024-01-10T01:38:20.657Z,-7
2024-01-10T01:39:36.648Z,-7
2024-01-10T01:40:52.645Z,-7.1
2024-01-10T01:42:08.717Z,-7.1
2024-01-10T01:43:24.687Z,-7.1
2024-01-10T01:44:40.643Z,-7
2024-01-10T01:45:56.853Z,-7
2024-01-10T01:47:12.715Z,-6.8
2024-01-10T01:48:28.814Z,-6.8
2024-01-10T01:49:44.766Z,-6.8
2024-01-10T01:51:00.657Z,-6.8
2024-01-10T01:52:16.655Z,-6.8
2024-01-10T01:53:33.515Z,-6.6
2024-01-10T01:54:49.713Z,-6.7
2024-01-10T01:56:06.736Z,-6.7
2024-01-10T01:57:22.697Z,-6.8
2024-01-10T01:58:38.769Z,-6.8
2024-01-10T01:59:54.727Z,-6.9
2024-01-10T02:01:10.810Z,-7
2024-01-10T02:02:26.814Z,-7.1
2024-01-10T02:03:42.810Z,-7.3
2024-01-10T02:04:58.855Z,-7.4
2024-01-10T02:06:15.788Z,-7.6
2024-01-10T02:07:32.699Z,-7.8
2024-01-10T02:08:48.689Z,-7.9
2024-01-10T02:10:05.161Z,-7.9
2024-01-10T02:11:21.802Z,-8
2024-01-10T02:12:38.703Z,-8.2
2024-01-10T02:13:54.733Z,-8.2
2024-01-10T02:15:10.793Z,-8.1
2024-01-10T02:16:27.747Z,-8.1
2024-01-10T02:17:43.814Z,-7.9
2024-01-10T02:19:00.770Z,-7.7
2024-01-10T02:20:17.783Z,-7.6
2024-01-10T02:21:33.807Z,-7.6
2024-01-10T02:22:50.735Z,-7.7
2024-01-10T02:24:06.745Z,-7.8
2024-01-10T02:25:23.712Z,-8
2024-01-10T02:26:39.804Z,-7.9
2024-01-10T02:27:56.697Z,-7.9
2024-01-10T02:29:12.765Z,-7.8
2024-01-10T02:30:28.735Z,-7.9
2024-01-10T02:31:44.847Z,-8.2
2024-01-10T02:33:00.810Z,-8.4
2024-01-10T02:34:16.801Z,-8.6
2024-01-10T02:35:32.742Z,-8.7
2024-01-10T02:36:48.762Z,-8.8
2024-01-10T02:38:04.822Z,-8.9
2024-01-10T02:39:20.765Z,-9.1
2024-01-10T02:40:36.780Z,-9.2
2024-01-10T02:41:52.744Z,-9.3
2024-01-10T02:43:08.781Z,-9.3
2024-01-10T02:44:24.809Z,-9.2
2024-01-10T02:45:40.777Z,-9.2
2024-01-10T02:46:56.815Z,-9.1
2024-01-10T02:48:12.840Z,-9
2024-01-10T02:49:29.841Z,-8.9
2024-01-10T02:50:47.116Z,-8.7
2024-01-10T02:52:04.335Z,-8.6
2024-01-10T02:53:20.813Z,-8.8
2024-01-10T02:54:37.856Z,-8.9
2024-01-10T02:55:53.814Z,-9
2024-01-10T02:57:10.796Z,-9
2024-01-10T02:58:27.772Z,-9
2024-01-10T02:59:44.848Z,-9
2024-01-10T03:01:01.793Z,-8.8
2024-01-10T03:02:17.874Z,-8.9
2024-01-10T03:03:33.831Z,-8.9
2024-01-10T03:04:49.824Z,-8.8
2024-01-10T03:06:07.204Z,-8.9
2024-01-10T03:07:23.792Z,-8.8
2024-01-10T03:08:39.782Z,-8.7
2024-01-10T03:09:56.787Z,-8.5
2024-01-10T03:11:13.795Z,-8.5
2024-01-10T03:12:30.844Z,-8.5
2024-01-10T03:13:47.821Z,-8.5
2024-01-10T03:15:04.755Z,-8.5
2024-01-10T03:16:20.784Z,-8.6
2024-01-10T03:17:37.011Z,-8.6
2024-01-10T03:18:54.228Z,-8.5
2024-01-10T03:20:10.800Z,-8.4
2024-01-10T03:21:26.761Z,-8.3
2024-01-10T03:22:42.800Z,-8
2024-01-10T03:23:58.764Z,-7.9
2024-01-10T03:25:14.777Z,-8
2024-01-10T03:26:31.379Z,-8.2
2024-01-10T03:27:48.272Z,-8.3
2024-01-10T03:29:04.793Z,-8.4
2024-01-10T03:30:20.818Z,-8.5
2024-01-10T03:31:36.767Z,-8.6
2024-01-10T03:32:52.924Z,-8.6
2024-01-10T03:34:08.806Z,-8.6
2024-01-10T03:35:24.819Z,-8.7
2024-01-10T03:36:40.802Z,-8.9
2024-01-10T03:37:56.846Z,-8.9
2024-01-10T03:39:12.760Z,-9.1
2024-01-10T03:40:28.766Z,-9.3
2024-01-10T03:41:44.776Z,-9.1
2024-01-10T03:43:00.808Z,-9
2024-01-10T03:44:16.845Z,-9.1
2024-01-10T03:45:32.845Z,-9
2024-01-10T03:46:48.789Z,-8.9
2024-01-10T03:48:04.804Z,-8.8
2024-01-10T03:49:20.928Z,-8.7
2024-01-10T03:50:36.809Z,-8.7
2024-01-10T03:51:52.787Z,-8.8
2024-01-10T03:53:08.834Z,-9
2024-01-10T03:54:24.784Z,-9
2024-01-10T03:55:40.820Z,-9
2024-01-10T03:56:56.780Z,-9
2024-01-10T03:58:12.855Z,-9
2024-01-10T03:59:28.795Z,-9.1
2024-01-10T04:00:44.842Z,-9.2
2024-01-10T04:02:00.863Z,-9.1
2024-01-10T04:03:16.867Z,-9
2024-01-10T04:04:32.832Z,-9
2024-01-10T04:05:48.935Z,-8.9
2024-01-10T04:07:04.801Z,-8.8
2024-01-10T04:08:20.839Z,-8.9
2024-01-10T04:09:36.822Z,-9
2024-01-10T04:10:52.871Z,-9
2024-01-10T04:12:08.822Z,-8.9
2024-01-10T04:13:24.809Z,-8.8
2024-01-10T04:14:40.841Z,-8.7
2024-01-10T04:15:56.912Z,-8.5
2024-01-10T04:17:12.843Z,-8.4
2024-01-10T04:18:29.573Z,-8.3
2024-01-10T04:19:45.893Z,-8.4
2024-01-10T04:21:02.001Z,-8.5
2024-01-10T04:22:17.789Z,-8.6
2024-01-10T04:23:33.816Z,-8.5
2024-01-10T04:24:49.838Z,-8.6
2024-01-10T04:26:05.895Z,-8.5
2024-01-10T04:27:21.845Z,-8.6
2024-01-10T04:28:37.869Z,-8.5
2024-01-10T04:29:53.853Z,-8.5
2024-01-10T04:31:09.964Z,-8.4
2024-01-10T04:32:25.991Z,-8.4
2024-01-10T04:33:41.905Z,-8.6
2024-01-10T04:34:57.856Z,-8.7
2024-01-10T04:36:13.852Z,-8.6
2024-01-10T04:37:29.845Z,-8.5
2024-01-10T04:38:45.881Z,-8.5
2024-01-10T04:40:01.936Z,-8.4
2024-01-10T04:41:17.994Z,-8.3
2024-01-10T04:42:33.842Z,-8.3
2024-01-10T04:43:49.866Z,-8.2
2024-01-10T04:45:05.847Z,-8.3
2024-01-10T04:46:22.280Z,-8.5
2024-01-10T04:47:39.213Z,-8.8
2024-01-10T04:48:56.066Z,-8.9
2024-01-10T04:50:13.885Z,-9.1
2024-01-10T04:51:27.859Z,-9.3
2024-01-10T04:52:43.910Z,-9.3
2024-01-10T04:53:59.863Z,-9.5
2024-01-10T04:55:15.842Z,-9.6
2024-01-10T04:56:31.922Z,-9.5
2024-01-10T04:57:47.930Z,-9.3
2024-01-10T04:59:03.953Z,-9
2024-01-10T05:00:19.864Z,-8.8
2024-01-10T05:01:35.904Z,-8.7
2024-01-10T05:02:54.483Z,-8.9
2024-01-10T05:04:07.925Z,-8.9
2024-01-10T05:05:23.906Z,-8.8
2024-01-10T05:06:39.913Z,-8.6
2024-01-10T05:07:55.914Z,-8.4
2024-01-10T05:09:11.872Z,-8.3
2024-01-10T05:10:27.866Z,-8.1
2024-01-10T05:11:44.943Z,-8
2024-01-10T05:12:59.882Z,-7.9
2024-01-10T05:14:15.894Z,-7.7
2024-01-10T05:15:31.914Z,-7.7
2024-01-10T05:16:47.909Z,-7.6
2024-01-10T05:18:03.942Z,-7.7
2024-01-10T05:19:19.915Z,-7.9
2024-01-10T05:20:35.982Z,-7.8
2024-01-10T05:21:51.875Z,-7.8
2024-01-10T05:23:07.951Z,-7.9
2024-01-10T05:24:23.869Z,-8
2024-01-10T05:25:40.105Z,-8
2024-01-10T05:26:55.903Z,-8.1
2024-01-10T05:28:11.905Z,-8.2
2024-01-10T05:29:28.021Z,-8.4
2024-01-10T05:30:43.956Z,-8.5
2024-01-10T05:31:59.982Z,-8.5
2024-01-10T05:33:15.934Z,-8.5
2024-01-10T05:34:31.923Z,-8.6
2024-01-10T05:35:47.961Z,-8.6
2024-01-10T05:37:04.325Z,-8.8
2024-01-10T05:38:20.928Z,-9
2024-01-10T05:39:36.900Z,-9.1
2024-01-10T05:40:53.524Z,-9.2
2024-01-10T05:42:09.997Z,-9.2
2024-01-10T05:43:26.749Z,-9.3
2024-01-10T05:44:42.925Z,-9.2
2024-01-10T05:45:58.978Z,-9
2024-01-10T05:47:14.973Z,-8.8
2024-01-10T05:48:31.005Z,-8.8
2024-01-10T05:49:46.983Z,-8.9
2024-01-10T05:51:03.745Z,-9
2024-01-10T05:52:21.297Z,-8.9
2024-01-10T05:53:38.003Z,-8.8
2024-01-10T05:54:54.023Z,-8.8
2024-01-10T05:56:11.175Z,-9
2024-01-10T05:57:29.049Z,-9.2
2024-01-10T05:58:46.062Z,-9.6
2024-01-10T06:00:03.013Z,-9.7
2024-01-10T06:01:19.965Z,-9.8
2024-01-10T06:02:36.377Z,-9.9
2024-01-10T06:03:53.032Z,-9.9
2024-01-10T06:05:08.958Z,-9.9
2024-01-10T06:06:24.966Z,-9.9
2024-01-10T06:07:40.944Z,-9.8
2024-01-10T06:08:56.972Z,-9.6
2024-01-10T06:10:12.953Z,-9.5
2024-01-10T06:11:28.990Z,-9.3
2024-01-10T06:12:44.959Z,-9.1
2024-01-10T06:14:01.051Z,-8.9
2024-01-10T06:15:16.950Z,-8.7
2024-01-10T06:16:32.952Z,-8.5
2024-01-10T06:17:49.009Z,-8.3
2024-01-10T06:19:05.122Z,-8.2
2024-01-10T06:20:21.060Z,-8.1
2024-01-10T06:21:36.946Z,-8.3
2024-01-10T06:22:52.965Z,-8.3
2024-01-10T06:24:08.956Z,-8.4
2024-01-10T06:25:24.971Z,-8.4
2024-01-10T06:26:40.919Z,-8.3
2024-01-10T06:27:56.961Z,-8.4
2024-01-10T06:29:13.807Z,-8.6
2024-01-10T06:30:30.010Z,-8.6
2024-01-10T06:31:46.032Z,-8.6
2024-01-10T06:33:03.500Z,-8.7
2024-01-10T06:34:20.524Z,-8.7
2024-01-10T06:35:37.024Z,-8.9
2024-01-10T06:36:52.990Z,-8.8
2024-01-10T06:38:08.974Z,-8.7
2024-01-10T06:39:25.003Z,-8.6
2024-01-10T06:40:40.946Z,-8.6
2024-01-10T06:41:56.957Z,-8.6
2024-01-10T06:43:13.538Z,-8.7
2024-01-10T06:44:30.554Z,-8.8
2024-01-10T06:45:46.969Z,-8.8
2024-01-10T06:47:03.033Z,-8.9
2024-01-10T06:48:18.991Z,-8.9
2024-01-10T06:49:35.090Z,-8.8
2024-01-10T06:50:51.028Z,-8.7
2024-01-10T06:52:06.948Z,-8.7
2024-01-10T06:53:23.040Z,-8.8
2024-01-10T06:54:38.996Z,-8.7
2024-01-10T06:55:55.050Z,-8.6
2024-01-10T06:57:11.037Z,-8.7
2024-01-10T06:58:27.489Z,-8.8
2024-01-10T06:59:44.672Z,-8.8
2024-01-10T07:01:01.059Z,-8.8
2024-01-10T07:02:17.019Z,-8.9
2024-01-10T07:03:33.046Z,-9.2
2024-01-10T07:04:49.089Z,-9.5
2024-01-10T07:06:05.101Z,-9.8
2024-01-10T07:07:21.013Z,-10.1
2024-01-10T07:08:36.998Z,-10.1
2024-01-10T07:09:53.065Z,-9.9
2024-01-10T07:11:09.038Z,-9.8
2024-01-10T07:12:25.009Z,-9.6
2024-01-10T07:13:41.012Z,-9.3
2024-01-10T07:14:57.022Z,-9.1
2024-01-10T07:16:13.013Z,-8.8
2024-01-10T07:17:29.084Z,-8.5
2024-01-10T07:18:45.102Z,-8.6
2024-01-10T07:20:01.086Z,-8.9
2024-01-10T07:21:17.086Z,-9
2024-01-10T07:22:33.033Z,-9.2
2024-01-10T07:23:49.056Z,-9.2
2024-01-10T07:25:06.562Z,-9.5
2024-01-10T07:26:21.471Z,-9.4
2024-01-10T07:27:38.035Z,-9.5
2024-01-10T07:28:54.122Z,-9.4
2024-01-10T07:30:10.201Z,-9.2
2024-01-10T07:31:26.033Z,-9
2024-01-10T07:32:42.107Z,-8.9
2024-01-10T07:33:58.594Z,-8.8
2024-01-10T07:35:15.166Z,-8.9
2024-01-10T07:36:31.118Z,-8.7
2024-01-10T07:37:47.152Z,-8.4
2024-01-10T07:39:04.239Z,-8
2024-01-10T07:40:19.036Z,-7.9
2024-01-10T07:41:35.085Z,-7.7
2024-01-10T07:42:51.053Z,-7.6
2024-01-10T07:44:07.165Z,-7.7
2024-01-10T07:45:23.059Z,-7.8
2024-01-10T07:46:39.142Z,-7.8
2024-01-10T07:47:55.087Z,-7.7
2024-01-10T07:49:11.055Z,-7.5
2024-01-10T07:50:27.107Z,-7.5
2024-01-10T07:51:43.114Z,-7.3
2024-01-10T07:52:59.093Z,-7.3
2024-01-10T07:54:15.054Z,-7.1
2024-01-10T07:55:31.065Z,-7.1
2024-01-10T07:56:47.267Z,-7
2024-01-10T07:58:03.096Z,-6.9
2024-01-10T07:59:19.107Z,-6.8
2024-01-10T08:00:35.076Z,-6.4
2024-01-10T08:01:51.166Z,-6.1
2024-01-10T08:03:07.153Z,-5.8
2024-01-10T08:04:23.067Z,-5.5
2024-01-10T08:05:39.137Z,-5.2
2024-01-10T08:06:55.211Z,-5.1
2024-01-10T08:08:11.101Z,-4.9
2024-01-10T08:09:27.102Z,-4.7
2024-01-10T08:10:43.113Z,-4.9
2024-01-10T08:11:59.112Z,-5
2024-01-10T08:13:15.094Z,-5.1
2024-01-10T08:14:31.130Z,-4.9
2024-01-10T08:15:47.114Z,-4.7
2024-01-10T08:17:03.138Z,-4.7
2024-01-10T08:18:19.151Z,-4.9
2024-01-10T08:19:35.110Z,-5
2024-01-10T08:20:51.106Z,-5.1
2024-01-10T08:22:07.187Z,-4.7
2024-01-10T08:23:23.139Z,-4.3
2024-01-10T08:24:39.130Z,-4.1
2024-01-10T08:25:55.143Z,-4.1
2024-01-10T08:27:11.118Z,-4.3
2024-01-10T08:28:27.586Z,-4.3
2024-01-10T08:29:44.528Z,-4.1
2024-01-10T08:31:03.938Z,-4
2024-01-10T08:32:17.124Z,-4.1
2024-01-10T08:33:33.315Z,-4.4
2024-01-10T08:34:49.153Z,-4.3
2024-01-10T08:36:05.103Z,-4
2024-01-10T08:37:21.122Z,-3.8
2024-01-10T08:38:37.214Z,-3.6
2024-01-10T08:39:53.120Z,-3.5
2024-01-10T08:41:09.129Z,-3.6
2024-01-10T08:42:25.118Z,-3.6
2024-01-10T08:43:41.162Z,-3.9
2024-01-10T08:44:57.144Z,-4.2
2024-01-10T08:46:13.195Z,-4.3
2024-01-10T08:47:29.299Z,-4.5
2024-01-10T08:48:45.239Z,-4.8
2024-01-10T08:50:01.168Z,-5.3
2024-01-10T08:51:17.133Z,-5.1
2024-01-10T08:52:33.155Z,-5.1
2024-01-10T08:53:49.117Z,-5
2024-01-10T08:55:05.173Z,-5.1
2024-01-10T08:56:21.301Z,-5
2024-01-10T08:57:37.146Z,-4.8
2024-01-10T08:58:53.168Z,-4.4
2024-01-10T09:00:09.159Z,-3.9
2024-01-10T09:01:25.215Z,-4.1
2024-01-10T09:02:41.161Z,-4.1
2024-01-10T09:03:57.186Z,-3.8
2024-01-10T09:05:13.181Z,-3.7
2024-01-10T09:06:29.212Z,-3.7
2024-01-10T09:07:45.173Z,-3.7
2024-01-10T09:09:01.191Z,-4
2024-01-10T09:10:17.135Z,-4.2
2024-01-10T09:11:34.981Z,-4.1
2024-01-10T09:12:49.135Z,-4.2
2024-01-10T09:14:05.249Z,-4.2
2024-01-10T09:15:21.162Z,-4.1
2024-01-10T09:16:37.140Z,-3.8
2024-01-10T09:17:53.204Z,-3.4
2024-01-10T09:19:11.250Z,-2.9
2024-01-10T09:20:25.558Z,-2.7
2024-01-10T09:21:42.149Z,-2.9
2024-01-10T09:22:58.219Z,-2.8
2024-01-10T09:24:18.664Z,-2.8
2024-01-10T09:25:30.148Z,-3
2024-01-10T09:26:46.195Z,-3.1
2024-01-10T09:28:02.149Z,-3.4
2024-01-10T09:29:18.189Z,-3.6
2024-01-10T09:30:34.213Z,-3.5
2024-01-10T09:31:50.330Z,-3.3
2024-01-10T09:33:06.544Z,-3.3
2024-01-10T09:34:23.302Z,-3.2
2024-01-10T09:35:39.205Z,-2.9
2024-01-10T09:36:55.226Z,-2.6
2024-01-10T09:38:11.557Z,-2.2
2024-01-10T09:39:28.158Z,-1.8
2024-01-10T09:40:44.242Z,-1.2
2024-01-10T09:42:00.259Z,-1.1
2024-01-10T09:43:16.442Z,-1
2024-01-10T09:44:33.264Z,-1.4
2024-01-10T09:45:49.192Z,-2.1
2024-01-10T09:47:05.252Z,-2.4
2024-01-10T09:48:21.291Z,-2.4
2024-01-10T09:49:37.606Z,-2.4
2024-01-10T09:50:54.191Z,-2.5
2024-01-10T09:52:10.300Z,-2.6
2024-01-10T09:53:26.347Z,-2.6
2024-01-10T09:54:42.257Z,-2.8
2024-01-10T09:55:58.387Z,-3
2024-01-10T09:57:14.200Z,-2.8
2024-01-10T09:58:30.266Z,-2.8
2024-01-10T09:59:46.216Z,-2.6
2024-01-10T10:01:02.209Z,-2.4
2024-01-10T10:02:18.221Z,-1.9
2024-01-10T10:03:34.346Z,-1.4
2024-01-10T10:04:53.211Z,-0.8
2024-01-10T10:06:06.305Z,-0.4
2024-01-10T10:07:22.272Z,-0.3
2024-01-10T10:08:38.284Z,-0.1
2024-01-10T10:09:54.188Z,-0.3
2024-01-10T10:11:10.241Z,-0.6
2024-01-10T10:12:26.251Z,0.2
2024-01-10T10:13:42.258Z,1.2
2024-01-10T10:14:58.229Z,2.3
2024-01-10T10:16:14.429Z,2.8
2024-01-10T10:17:30.499Z,2.6
2024-01-10T10:18:47.913Z,1.6
2024-01-10T10:20:02.267Z,1
2024-01-10T10:21:18.444Z,1.2
2024-01-10T10:22:34.249Z,0.5
2024-01-10T10:23:50.333Z,0.2
2024-01-10T10:25:06.293Z,0.3
2024-01-10T10:26:22.722Z,0.5
2024-01-10T10:27:38.238Z,1.2
2024-01-10T10:28:54.297Z,2.1
2024-01-10T10:30:10.355Z,2.5
2024-01-10T10:31:26.282Z,2.5
2024-01-10T10:32:42.363Z,2.7
2024-01-10T10:33:58.275Z,2.9
2024-01-10T10:35:21.382Z,2.1
2024-01-10T10:36:30.772Z,1.8
2024-01-10T10:37:47.291Z,1.8
2024-01-10T10:39:03.294Z,2.2
2024-01-10T10:40:19.259Z,2.7
2024-01-10T10:41:35.671Z,3.5
2024-01-10T10:42:52.290Z,4
2024-01-10T10:44:08.322Z,4
2024-01-10T10:45:24.268Z,4.2
2024-01-10T10:46:40.286Z,4.3
2024-01-10T10:47:56.420Z,3.2
2024-01-10T10:49:12.389Z,1.2
2024-01-10T10:50:28.293Z,0.6
2024-01-10T10:51:44.280Z,0
2024-01-10T10:53:00.332Z,0
2024-01-10T10:54:17.119Z,-1.1
2024-01-10T10:55:33.264Z,0
2024-01-10T10:56:49.506Z,0.8
2024-01-10T10:58:10.868Z,1
2024-01-10T10:59:22.465Z,1.4
2024-01-10T11:00:38.290Z,2.3
2024-01-10T11:01:54.322Z,3
2024-01-10T11:03:10.385Z,2.9
2024-01-10T11:04:26.403Z,2.3
2024-01-10T11:05:42.494Z,2
2024-01-10T11:06:58.405Z,2.2
2024-01-10T11:08:14.573Z,2.5
2024-01-10T11:09:31.431Z,3.1
2024-01-10T11:10:47.303Z,3.8
2024-01-10T11:12:03.311Z,4
2024-01-10T11:13:19.377Z,4.3
2024-01-10T11:14:35.474Z,4.8
2024-01-10T11:15:51.281Z,4.7
2024-01-10T11:17:07.373Z,5
2024-01-10T11:18:23.324Z,4.5
2024-01-10T11:19:39.413Z,3.5
2024-01-10T11:20:55.306Z,3
2024-01-10T11:22:11.341Z,2.5
2024-01-10T11:23:27.372Z,2.7
2024-01-10T11:24:43.428Z,2.8
2024-01-10T11:25:59.430Z,2.7
2024-01-10T11:27:15.349Z,2.5
2024-01-10T11:28:31.330Z,2.4
2024-01-10T11:29:47.430Z,2.5
2024-01-10T11:31:04.049Z,3
2024-01-10T11:32:20.392Z,3.4
2024-01-10T11:33:38.984Z,3.1
2024-01-10T11:34:55.457Z,3.3
2024-01-10T11:36:11.463Z,3.4
2024-01-10T11:37:27.358Z,3.3
2024-01-10T11:38:43.369Z,3.1
2024-01-10T11:39:59.367Z,3.2
2024-01-10T11:41:15.398Z,3
2024-01-10T11:42:31.424Z,2.7
2024-01-10T11:43:47.351Z,2.4
2024-01-10T11:45:03.313Z,2
2024-01-10T11:46:21.126Z,1.8
2024-01-10T11:47:35.419Z,1.6
2024-01-10T11:48:51.367Z,1.1
2024-01-10T11:50:07.367Z,0.9
2024-01-10T11:51:23.365Z,1.2
2024-01-10T11:52:39.370Z,1.2
2024-01-10T11:53:55.357Z,1.4
2024-01-10T11:55:11.419Z,1.3
2024-01-10T11:56:33.447Z,1.8
2024-01-10T11:57:43.365Z,2.2
2024-01-10T11:58:59.378Z,2.1
2024-01-10T12:00:15.409Z,1.8
2024-01-10T12:01:31.359Z,1.4
2024-01-10T12:02:47.662Z,1.5
2024-01-10T12:04:10.022Z,1.7
2024-01-10T12:05:20.484Z,1.5
2024-01-10T12:06:36.587Z,1.5
2024-01-10T12:07:52.443Z,1.2
2024-01-10T12:09:08.372Z,0.8
2024-01-10T12:10:24.400Z,0.1
2024-01-10T12:11:40.349Z,-0.6
2024-01-10T12:12:56.411Z,-0.6
2024-01-10T12:14:12.405Z,-0.1
2024-01-10T12:15:28.387Z,0
2024-01-10T12:16:44.408Z,0
2024-01-10T12:18:00.453Z,0.4
2024-01-10T12:19:16.498Z,-0.1
2024-01-10T12:20:32.638Z,-0.3
2024-01-10T12:21:49.410Z,-1.2
2024-01-10T12:23:05.420Z,-1.7
2024-01-10T12:24:21.418Z,-1
2024-01-10T12:25:37.412Z,-1.6
2024-01-10T12:26:54.482Z,-0.9
2024-01-10T12:28:10.441Z,-0.4
2024-01-10T12:29:26.427Z,0.5
2024-01-10T12:30:42.439Z,0.6
2024-01-10T12:31:58.396Z,0.2
2024-01-10T12:33:14.449Z,0.3
2024-01-10T12:34:30.405Z,-0.6
2024-01-10T12:35:46.553Z,-1.4
2024-01-10T12:37:03.397Z,-0.7
2024-01-10T12:38:19.400Z,-0.5
2024-01-10T12:39:35.440Z,-0.4
2024-01-10T12:40:51.534Z,-0.3
2024-01-10T12:42:07.415Z,-0.1
2024-01-10T12:43:23.510Z,-0.2
2024-01-10T12:44:39.422Z,-0.4
2024-01-10T12:45:55.477Z,-0.7
2024-01-10T12:47:11.521Z,-0.7
2024-01-10T12:48:27.516Z,-0.4
2024-01-10T12:49:43.449Z,-1.3
2024-01-10T12:50:59.441Z,-0.6
2024-01-10T12:52:17.267Z,0.4
2024-01-10T12:53:31.470Z,0.8
2024-01-10T12:54:47.434Z,0.9
2024-01-10T12:56:03.469Z,0.2
2024-01-10T12:57:19.524Z,0
2024-01-10T12:58:35.430Z,-1.1
2024-01-10T12:59:51.421Z,-1.7
2024-01-10T13:01:07.440Z,-0.8
2024-01-10T13:02:23.472Z,-0.4
2024-01-10T13:03:39.445Z,-0.5
2024-01-10T13:04:55.493Z,-0.3
2024-01-10T13:06:11.478Z,0.2
2024-01-10T13:07:27.491Z,0.9
2024-01-10T13:08:43.585Z,1.1
2024-01-10T13:09:59.486Z,1.1
2024-01-10T13:11:15.521Z,1.4
2024-01-10T13:12:31.479Z,2.1
2024-01-10T13:13:47.474Z,3
2024-01-10T13:15:03.506Z,3.6
2024-01-10T13:16:19.440Z,3.6
2024-01-10T13:17:35.527Z,3.4
2024-01-10T13:18:51.805Z,3.1
2024-01-10T13:20:08.568Z,2.9
2024-01-10T13:21:24.439Z,2.9
2024-01-10T13:22:40.502Z,2.9
2024-01-10T13:23:56.479Z,3.1
2024-01-10T13:25:12.497Z,3.4
2024-01-10T13:26:28.607Z,3.5
2024-01-10T13:27:44.467Z,2.9
2024-01-10T13:29:00.550Z,2.6
2024-01-10T13:30:16.513Z,2.6
2024-01-10T13:31:32.591Z,2.6
2024-01-10T13:32:48.551Z,2.4
2024-01-10T13:34:04.619Z,1.5
2024-01-10T13:35:20.480Z,0
2024-01-10T13:36:36.460Z,0
2024-01-10T13:37:52.498Z,0
2024-01-10T13:39:08.653Z,0
2024-01-10T13:40:24.472Z,-0.2
2024-01-10T13:41:40.502Z,-0.2
2024-01-10T13:42:56.457Z,-0.8
2024-01-10T13:44:12.528Z,-0.4
2024-01-10T13:45:43.555Z,0.3
2024-01-10T13:46:59.494Z,0.9
2024-01-10T13:48:15.550Z,1.4
2024-01-10T13:49:31.534Z,1.9
2024-01-10T13:50:47.557Z,1.7
2024-01-10T13:52:03.506Z,1.6
2024-01-10T13:53:19.822Z,1.5
2024-01-10T13:54:36.494Z,1.6
2024-01-10T13:55:52.548Z,1.8
2024-01-10T13:57:08.668Z,2.3
2024-01-10T13:58:24.527Z,2.6
2024-01-10T13:59:40.499Z,2.4
2024-01-10T14:00:56.592Z,2.1
2024-01-10T14:02:12.571Z,1.6
2024-01-10T14:03:30.408Z,1.3
2024-01-10T14:04:44.561Z,0.7
2024-01-10T14:06:00.604Z,0.5
2024-01-10T14:07:16.628Z,0.6
2024-01-10T14:08:32.490Z,0.9
2024-01-10T14:09:48.527Z,1.1
2024-01-10T14:11:05.562Z,0.6
2024-01-10T14:12:21.649Z,0
2024-01-10T14:13:37.513Z,0.1
2024-01-10T14:14:53.634Z,0.3
2024-01-10T14:16:09.611Z,0.8
2024-01-10T14:17:25.681Z,0.4
2024-01-10T14:18:41.549Z,0.1
2024-01-10T14:19:57.525Z,-0.6
2024-01-10T14:21:13.580Z,-1.4
2024-01-10T14:22:31.429Z,-0.7
2024-01-10T14:23:45.618Z,-1.1
2024-01-10T14:25:02.446Z,-1.2
2024-01-10T14:26:17.591Z,-0.7
2024-01-10T14:27:33.604Z,-1.1
2024-01-10T14:28:49.551Z,-0.5
2024-01-10T14:30:05.560Z,-0.3
2024-01-10T14:31:26.220Z,-0.1
2024-01-10T14:32:38.992Z,-1.2
2024-01-10T14:33:54.633Z,-0.8
2024-01-10T14:35:10.843Z,-1.1
2024-01-10T14:36:26.751Z,-0.6
2024-01-10T14:37:42.582Z,-0.4
2024-01-10T14:38:58.577Z,-0.5
2024-01-10T14:40:14.561Z,-0.6
2024-01-10T14:41:30.567Z,-0.7
2024-01-10T14:42:46.591Z,-0.9
2024-01-10T14:44:02.626Z,-1.1
2024-01-10T14:45:18.579Z,-1.2
2024-01-10T14:46:34.558Z,-1.3
2024-01-10T14:47:50.779Z,-1.4
2024-01-10T14:49:06.628Z,-1.2
2024-01-10T14:50:22.771Z,-1.1
2024-01-10T14:51:38.560Z,-1
2024-01-10T14:52:54.740Z,-0.8
2024-01-10T14:54:10.659Z,-0.7
2024-01-10T14:55:26.621Z,-0.6
2024-01-10T14:56:43.830Z,-0.6
2024-01-10T14:57:58.609Z,-0.6
2024-01-10T14:59:14.658Z,-0.5
2024-01-10T15:00:30.623Z,-0.6
2024-01-10T15:01:46.718Z,-0.6
2024-01-10T15:03:04.358Z,-0.4
2024-01-10T15:04:18.711Z,-0.3
2024-01-10T15:05:35.081Z,-0.3
2024-01-10T15:06:51.743Z,-0.2
2024-01-10T15:08:07.652Z,-0.1
2024-01-10T15:09:23.621Z,0
2024-01-10T15:10:39.624Z,-0.1
2024-01-10T15:11:55.588Z,-0.1
2024-01-10T15:13:11.613Z,-0.2
2024-01-10T15:14:27.738Z,-0.3
2024-01-10T15:15:43.569Z,-0.3
2024-01-10T15:16:59.649Z,-0.4
2024-01-10T15:18:15.633Z,-0.4
2024-01-10T15:19:31.639Z,-0.4
2024-01-10T15:20:47.586Z,-0.3
2024-01-10T15:22:03.661Z,-0.3
2024-01-10T15:23:19.650Z,-0.4
2024-01-10T15:24:35.610Z,-0.4
2024-01-10T15:25:51.730Z,-0.4
2024-01-10T15:27:07.748Z,-0.4
2024-01-10T15:28:23.665Z,-0.3
2024-01-10T15:29:39.783Z,-0.4
2024-01-10T15:30:55.678Z,-0.4
2024-01-10T15:32:11.742Z,-0.5
2024-01-10T15:33:27.686Z,-0.4
2024-01-10T15:34:43.746Z,-0.4
2024-01-10T15:35:59.631Z,-0.4
2024-01-10T15:37:15.608Z,-0.4
2024-01-10T15:38:31.646Z,-0.4
2024-01-10T15:39:47.777Z,-0.5
2024-01-10T15:41:03.779Z,-0.8
2024-01-10T15:42:19.642Z,-1
2024-01-10T15:43:35.694Z,-1.3
2024-01-10T15:44:51.650Z,-1.4
2024-01-10T15:46:07.766Z,-1.6
2024-01-10T15:47:23.691Z,-1.8
2024-01-10T15:48:39.684Z,-1.7
2024-01-10T15:49:55.649Z,-1.6
2024-01-10T15:51:11.663Z,-1.4
2024-01-10T15:52:27.644Z,-1.4
2024-01-10T15:53:43.688Z,-1.3
2024-01-10T15:54:59.693Z,-1.3
2024-01-10T15:56:15.731Z,-1.1
2024-01-10T15:57:31.678Z,-1.1
2024-01-10T15:58:47.707Z,-1.1
2024-01-10T16:00:03.681Z,-1.1
2024-01-10T16:01:19.966Z,-1.1
2024-01-10T16:02:35.635Z,-1.1
2024-01-10T16:03:51.754Z,-1
2024-01-10T16:05:07.769Z,-1
2024-01-10T16:06:23.752Z,-1
2024-01-10T16:07:39.728Z,-1.1
2024-01-10T16:08:55.698Z,-1.1
2024-01-10T16:10:11.657Z,-1.3
2024-01-10T16:11:27.758Z,-1.3
2024-01-10T16:12:43.652Z,-1.3
2024-01-10T16:13:59.765Z,-1.2
2024-01-10T16:15:15.703Z,-1.2
2024-01-10T16:16:31.724Z,-1.3
2024-01-10T16:17:47.717Z,-1.4
2024-01-10T16:19:03.732Z,-1.6
2024-01-10T16:20:19.763Z,-1.6
2024-01-10T16:21:35.674Z,-1.7
2024-01-10T16:22:51.743Z,-1.7
2024-01-10T16:24:07.717Z,-1.8
2024-01-10T16:25:23.671Z,-2
2024-01-10T16:26:39.744Z,-2.1
2024-01-10T16:27:55.699Z,-2.1
2024-01-10T16:29:11.764Z,-2.2
2024-01-10T16:30:27.787Z,-2.3
2024-01-10T16:31:43.724Z,-2.3
2024-01-10T16:32:59.723Z,-2.3
2024-01-10T16:34:15.694Z,-2.4
2024-01-10T16:35:31.829Z,-2.5
2024-01-10T16:36:47.699Z,-2.6
2024-01-10T16:38:03.730Z,-2.8
2024-01-10T16:39:19.693Z,-2.9
2024-01-10T16:40:35.743Z,-2.8
2024-01-10T16:41:52.076Z,-2.7
2024-01-10T16:43:08.702Z,-2.5
2024-01-10T16:44:24.768Z,-2.4
2024-01-10T16:45:40.818Z,-2.3
2024-01-10T16:46:58.821Z,-2.1
2024-01-10T16:48:15.887Z,-2.1
2024-01-10T16:49:32.774Z,-1.9
2024-01-10T16:50:48.716Z,-1.8
2024-01-10T16:52:04.895Z,-1.7
2024-01-10T16:53:21.985Z,-1.6
2024-01-10T16:54:39.726Z,-1.7
2024-01-10T16:55:56.995Z,-1.7
2024-01-10T16:57:14.762Z,-1.7
2024-01-10T16:58:30.825Z,-1.7
2024-01-10T16:59:46.862Z,-1.7
2024-01-10T17:01:03.964Z,-1.6
2024-01-10T17:02:20.124Z,-1.6
2024-01-10T17:03:38.248Z,-1.7
2024-01-10T17:04:59.850Z,-1.8
2024-01-10T17:06:15.774Z,-1.8
2024-01-10T17:07:31.752Z,-1.7